Time;durP1;ratioP1;P1;durP2;ratioP2;P2;SDS_P1;SDS_P2;PMS_P1;PMS_P2;Temp;Humidity;BMP_temperature;BMP_pressure;BME280_temperature;BME280_humidity;BME280_pressure;Samples;Min_cycle;Max_cycle;Signal;HPM_P1;HPM_P2
2022/04/02 00:00:29;;;;;;;17.90;7.95;;;;;;;-149.78;100.00;50573.16;5070788;28;20052;-72
2022/04/02 00:02:55;;;;;;;17.08;8.35;;;;;;;-149.78;100.00;50553.59;5054171;28;20032;-71
2022/04/02 00:05:21;;;;;;;16.58;7.45;;;;;;;-149.78;100.00;50577.06;5070746;28;20036;-71
2022/04/02 00:07:47;;;;;;;19.08;8.88;;;;;;;-149.78;100.00;50551.63;5070669;28;20044;-72
2022/04/02 00:10:13;;;;;;;20.33;8.32;;;;;;;-149.78;100.00;50561.41;5053941;28;20127;-72
2022/04/02 00:12:39;;;;;;;17.92;8.20;;;;;;;-149.78;100.00;50584.88;5075436;28;20116;-72
2022/04/02 00:15:06;;;;;;;20.98;8.15;;;;;;;-149.78;100.00;50559.47;5074368;28;20107;-71
2022/04/02 00:17:33;;;;;;;17.25;8.85;;;;;;;-149.78;100.00;50553.59;5058093;28;20128;-71
2022/04/02 00:19:59;;;;;;;20.40;8.20;;;;;;;-149.78;100.00;50580.97;5058161;28;20368;-71
2022/04/02 00:22:24;;;;;;;20.95;8.27;;;;;;;-149.78;100.00;50612.25;5075868;28;20387;-71
2022/04/02 00:24:50;;;;;;;19.50;8.07;;;;;;;-149.78;100.00;50573.16;5074750;28;20124;-71
2022/04/02 00:27:16;;;;;;;17.00;7.28;;;;;;;-149.78;100.00;50573.16;5083820;28;20425;-73
2022/04/02 00:29:42;;;;;;;17.40;7.63;;;;;;;-149.78;100.00;50592.72;5096586;28;20177;-74
2022/04/02 00:32:08;;;;;;;20.52;8.13;;;;;;;-149.78;100.00;50557.50;5095230;28;20135;-74
2022/04/02 00:34:34;;;;;;;29.85;11.93;;;;;;;-149.78;100.00;50596.63;5064153;28;20048;-74
2022/04/02 00:37:00;;;;;;;19.90;9.20;;;;;;;-149.78;100.00;50580.97;5078875;28;20487;-73
2022/04/02 00:39:25;;;;;;;21.73;7.57;;;;;;;-149.78;100.00;50620.09;5096507;28;20059;-74
2022/04/02 00:41:51;;;;;;;21.00;8.18;;;;;;;-149.78;100.00;50537.94;5069270;28;20060;-74
2022/04/02 00:44:18;;;;;;;20.75;7.22;;;;;;;-149.78;100.00;50596.63;5074979;28;20551;-75
2022/04/02 00:46:44;;;;;;;16.70;7.28;;;;;;;-149.78;100.00;50561.41;5076184;28;20042;-74
2022/04/02 00:49:12;;;;;;;18.23;7.75;;;;;;;-149.78;100.00;50579.00;5076110;28;20036;-74
2022/04/02 00:51:42;;;;;;;20.00;7.78;;;;;;;-149.78;100.00;50565.31;5094139;28;20028;-74
2022/04/02 00:54:14;;;;;;;21.92;8.65;;;;;;;-149.78;100.00;50565.31;5095509;28;20109;-74
2022/04/02 00:56:40;;;;;;;16.48;7.50;;;;;;;-149.78;100.00;50559.47;5094478;28;20036;-74
2022/04/02 00:59:08;;;;;;;19.80;7.60;;;;;;;-149.78;100.00;50545.75;5094319;28;20032;-74
2022/04/02 01:01:35;;;;;;;16.67;6.88;;;;;;;-149.78;100.00;50575.09;5094177;28;20089;-74
2022/04/02 01:04:02;;;;;;;21.48;8.13;;;;;;;-149.78;100.00;50620.09;5095334;28;20040;-75
2022/04/02 01:06:29;;;;;;;18.65;7.50;;;;;;;-149.78;100.00;50588.78;5095394;28;20032;-74
2022/04/02 01:08:56;;;;;;;15.98;7.22;;;;;;;-149.78;100.00;50586.84;5094425;28;20052;-74
2022/04/02 01:11:22;;;;;;;15.93;7.40;;;;;;;-149.78;100.00;50584.88;5095405;28;20036;-75
2022/04/02 01:13:48;;;;;;;14.07;6.95;;;;;;;-149.78;100.00;50594.66;5091709;28;20032;-74
2022/04/02 01:16:14;;;;;;;15.93;6.97;;;;;;;-149.78;100.00;50579.00;5086875;28;20062;-74
2022/04/02 01:18:40;;;;;;;18.92;7.10;;;;;;;-149.78;100.00;50553.59;5077338;28;20028;-74
2022/04/02 01:21:06;;;;;;;20.40;8.20;;;;;;;-149.78;100.00;50561.41;5085838;28;20093;-74
2022/04/02 01:23:31;;;;;;;22.45;7.55;;;;;;;-149.78;100.00;50565.31;5089423;28;20517;-74
2022/04/02 01:26:02;;;;;;;21.27;7.60;;;;;;;-149.78;100.00;50580.97;5073814;28;20531;-74
2022/04/02 01:28:34;;;;;;;18.52;7.80;;;;;;;-149.78;100.00;50561.41;5074794;28;20110;-74
2022/04/02 01:31:04;;;;;;;18.83;7.57;;;;;;;-149.78;100.00;50604.44;5074823;28;20041;-73
2022/04/02 01:33:31;;;;;;;24.75;8.30;;;;;;;-149.78;100.00;50561.41;5079109;28;20082;-74
2022/04/02 01:36:00;;;;;;;17.80;7.65;;;;;;;-149.78;100.00;50577.06;5094917;28;20116;-74
2022/04/02 01:38:27;;;;;;;18.13;7.40;;;;;;;-149.78;100.00;50588.78;5073466;28;20040;-74
2022/04/02 01:40:53;;;;;;;19.77;8.55;;;;;;;-149.78;100.00;50610.31;5074855;28;20097;-74
2022/04/02 01:43:19;;;;;;;16.40;6.85;;;;;;;-149.78;100.00;50584.88;5073132;28;20032;-74
2022/04/02 01:45:45;;;;;;;17.20;7.80;;;;;;;-149.78;100.00;50580.97;5074724;28;20471;-74
2022/04/02 01:48:10;;;;;;;16.67;7.65;;;;;;;-149.78;100.00;50573.16;5084381;28;20035;-73
2022/04/02 01:50:36;;;;;;;17.02;7.78;;;;;;;-149.78;100.00;50588.78;5094536;28;20450;-74
2022/04/02 01:53:04;;;;;;;22.63;8.23;;;;;;;-149.78;100.00;50577.06;5076411;28;20529;-74
2022/04/02 01:55:30;;;;;;;17.50;7.68;;;;;;;-149.78;100.00;50553.59;5093112;28;20034;-74
2022/04/02 01:57:55;;;;;;;19.15;8.60;;;;;;;-149.78;100.00;50565.31;5092922;28;20039;-74
2022/04/02 02:00:21;;;;;;;16.27;7.47;;;;;;;-149.78;100.00;50608.34;5076219;28;20138;-74
2022/04/02 02:02:47;;;;;;;18.88;8.07;;;;;;;-149.78;100.00;50584.88;5092960;28;20036;-74
2022/04/02 02:05:13;;;;;;;18.52;8.20;;;;;;;-149.78;100.00;50616.19;5094090;28;20036;-73
2022/04/02 02:07:39;;;;;;;19.48;8.23;;;;;;;-149.78;100.00;50577.06;5094359;28;20131;-74
2022/04/02 02:10:05;;;;;;;18.90;7.82;;;;;;;-149.78;100.00;50580.97;5092823;28;20111;-74
2022/04/02 02:12:31;;;;;;;19.38;8.32;;;;;;;-149.78;100.00;50584.88;5092785;28;20127;-74
2022/04/02 02:14:57;;;;;;;19.27;8.48;;;;;;;-149.78;100.00;50569.22;5092753;28;20032;-74
2022/04/02 02:17:22;;;;;;;16.60;7.97;;;;;;;-149.78;100.00;50518.38;5094159;28;20036;-73
2022/04/02 02:19:48;;;;;;;20.25;8.13;;;;;;;-149.78;100.00;50584.88;5092957;28;20032;-74
2022/04/02 02:22:15;;;;;;;18.80;7.75;;;;;;;-149.78;100.00;50559.47;5081606;28;20044;-74
2022/04/02 02:24:40;;;;;;;20.88;7.45;;;;;;;-149.78;100.00;50553.59;5055779;28;20045;-73
2022/04/02 02:27:08;;;;;;;15.35;6.68;;;;;;;-149.78;100.00;50573.16;5079692;28;20039;-73
2022/04/02 02:29:34;;;;;;;18.40;7.90;;;;;;;-149.78;100.00;50557.50;5085665;28;20395;-74
2022/04/02 02:31:59;;;;;;;19.50;8.32;;;;;;;-149.78;100.00;50624.00;5093446;28;20051;-74
2022/04/02 02:37:30;;;;;;;18.50;7.57;;;;;;;-149.78;100.00;50588.78;5051167;28;20049;-74
2022/04/02 02:39:56;;;;;;;19.27;7.95;;;;;;;-149.78;100.00;50534.03;5034716;28;20120;-74
2022/04/02 02:42:22;;;;;;;21.58;7.93;;;;;;;-149.78;100.00;50565.31;5062164;28;20131;-74
2022/04/02 02:44:48;;;;;;;17.15;7.75;;;;;;;-149.78;100.00;50584.88;5072623;28;20085;-73
2022/04/02 02:47:13;;;;;;;22.08;8.00;;;;;;;-149.78;100.00;50584.88;5072426;28;20406;-74
2022/04/02 02:49:39;;;;;;;18.25;7.80;;;;;;;-149.78;100.00;50577.06;5072490;28;20032;-74
2022/04/02 02:52:05;;;;;;;18.52;7.97;;;;;;;-149.78;100.00;50559.47;5072351;28;20037;-74
2022/04/02 02:54:32;;;;;;;20.00;8.85;;;;;;;-149.78;100.00;50553.59;5073450;28;20062;-74
2022/04/02 02:56:58;;;;;;;23.35;8.40;;;;;;;-149.78;100.00;50569.22;5073397;28;20035;-74
2022/04/02 02:59:24;;;;;;;22.73;9.65;;;;;;;-149.78;100.00;50573.16;5072162;28;20124;-74
2022/04/02 03:01:50;;;;;;;19.52;8.80;;;;;;;-149.78;100.00;50573.16;5073348;28;20060;-73
2022/04/02 03:04:18;;;;;;;20.05;8.50;;;;;;;-149.78;100.00;50537.94;5073364;28;20029;-74
2022/04/02 03:06:44;;;;;;;24.77;9.35;;;;;;;-149.78;100.00;50577.06;5073362;28;20028;-73
2022/04/02 03:09:10;;;;;;;24.67;8.65;;;;;;;-149.78;100.00;50545.75;5038950;28;20089;-74
2022/04/02 03:11:36;;;;;;;18.88;8.50;;;;;;;-149.78;100.00;50535.97;5073308;28;20501;-73
2022/04/02 03:14:02;;;;;;;19.38;7.93;;;;;;;-149.78;100.00;50579.00;5072085;28;20058;-73
2022/04/02 03:16:28;;;;;;;18.80;8.05;;;;;;;-149.78;100.00;50541.84;5055442;28;20032;-73
2022/04/02 03:18:55;;;;;;;17.60;7.50;;;;;;;-149.78;100.00;50565.31;5072901;28;20384;-73
2022/04/02 03:21:21;;;;;;;17.67;7.45;;;;;;;-149.78;100.00;50577.06;5075918;28;20040;-73
2022/04/02 03:23:47;;;;;;;19.67;7.93;;;;;;;-149.78;100.00;50543.81;5091610;28;20055;-74
2022/04/02 03:26:13;;;;;;;15.70;6.70;;;;;;;-149.78;100.00;50584.88;5090040;28;20970;-74
2022/04/02 03:28:39;;;;;;;19.98;7.68;;;;;;;-149.78;100.00;50547.72;5082347;28;20024;-73
2022/04/02 03:31:05;;;;;;;16.13;6.88;;;;;;;-149.78;100.00;50549.69;5091523;28;20036;-73
2022/04/02 03:33:31;;;;;;;14.70;6.88;;;;;;;-149.78;100.00;50541.84;5074918;28;20088;-73
2022/04/02 03:35:57;;;;;;;15.75;6.75;;;;;;;-149.78;100.00;50573.16;5079370;28;20404;-73
2022/04/02 03:38:22;;;;;;;18.00;6.65;;;;;;;-149.78;100.00;50541.84;5055093;28;20079;-73
2022/04/02 03:40:48;;;;;;;17.33;6.72;;;;;;;-149.78;100.00;50579.00;5071451;28;20484;-74
2022/04/02 03:43:14;;;;;;;13.40;6.00;;;;;;;-149.78;100.00;50580.97;5072661;28;20463;-73
2022/04/02 03:45:39;;;;;;;18.25;6.53;;;;;;;-149.78;100.00;50561.41;5090469;28;20059;-74
2022/04/02 03:48:05;;;;;;;14.30;6.07;;;;;;;-149.78;100.00;50557.50;5090974;28;20375;-73
2022/04/02 03:50:31;;;;;;;15.07;6.10;;;;;;;-149.78;100.00;50537.94;5091627;28;20028;-73
2022/04/02 03:52:57;;;;;;;15.00;6.05;;;;;;;-149.78;100.00;50545.75;5090833;28;20032;-73
2022/04/02 03:55:23;;;;;;;16.45;5.80;;;;;;;-149.78;100.00;50553.59;5092178;28;20688;-73
2022/04/02 03:57:49;;;;;;;15.50;6.30;;;;;;;-149.78;100.00;50563.38;5090965;28;20032;-73
2022/04/02 04:00:16;;;;;;;13.63;5.43;;;;;;;-149.78;100.00;50569.22;5070233;28;20388;-74
2022/04/02 04:02:42;;;;;;;11.27;4.97;;;;;;;-149.78;100.00;50547.72;5076069;28;20430;-73
2022/04/02 04:05:09;;;;;;;18.92;5.53;;;;;;;-149.78;100.00;50565.31;5076693;28;20047;-74
2022/04/02 04:07:38;;;;;;;14.85;5.55;;;;;;;-149.78;100.00;50610.31;5091540;28;20040;-74
2022/04/02 04:10:04;;;;;;;17.02;5.25;;;;;;;-149.78;100.00;50588.78;5090963;28;20040;-73
2022/04/02 04:12:29;;;;;;;16.70;5.60;;;;;;;-149.78;100.00;50547.72;5091655;28;20406;-73
2022/04/02 04:14:55;;;;;;;15.35;5.65;;;;;;;-149.78;100.00;50543.81;5090946;28;20082;-72
2022/04/02 04:17:23;;;;;;;12.45;5.40;;;;;;;-149.78;100.00;50580.97;5072685;28;20058;-72
2022/04/02 04:19:48;;;;;;;17.98;5.85;;;;;;;-149.78;100.00;50563.38;5070506;28;20424;-72
2022/04/02 04:22:14;;;;;;;15.43;5.22;;;;;;;-149.78;100.00;50553.59;5071719;28;20500;-72
2022/04/02 04:24:40;;;;;;;16.00;5.80;;;;;;;-149.78;100.00;50545.75;5037195;28;20051;-72
2022/04/02 04:27:06;;;;;;;15.57;5.50;;;;;;;-149.78;100.00;50584.88;5070288;28;20032;-72
2022/04/02 04:29:32;;;;;;;13.40;5.18;;;;;;;-149.78;100.00;50573.16;5053769;28;20071;-72
2022/04/02 04:31:58;;;;;;;14.80;5.60;;;;;;;-149.78;100.00;50588.78;5070157;28;20088;-72
2022/04/02 04:34:23;;;;;;;13.60;5.30;;;;;;;-149.78;100.00;50575.09;5070006;28;20036;-71
2022/04/02 04:36:49;;;;;;;13.43;5.45;;;;;;;-149.78;100.00;50596.63;5053725;28;20190;-72
2022/04/02 04:39:14;;;;;;;16.08;5.18;;;;;;;-149.78;100.00;50573.16;5071393;28;20042;-72
2022/04/02 04:41:41;;;;;;;18.48;5.82;;;;;;;-149.78;100.00;50545.75;5053742;28;20119;-72
2022/04/02 04:44:07;;;;;;;19.38;5.40;;;;;;;-149.78;100.00;50592.72;5069948;28;20537;-72
2022/04/02 04:46:33;;;;;;;15.00;5.30;;;;;;;-149.78;100.00;50549.69;5053477;28;20028;-72
2022/04/02 04:48:59;;;;;;;15.65;5.15;;;;;;;-149.78;100.00;50577.06;5053242;28;20055;-71
2022/04/02 04:51:24;;;;;;;11.02;4.90;;;;;;;-149.78;100.00;50588.78;5069967;28;20051;-72
2022/04/02 04:53:51;;;;;;;13.38;5.75;;;;;;;-149.78;100.00;50594.66;5070199;28;20033;-72
2022/04/02 04:56:19;;;;;;;15.32;5.65;;;;;;;-149.78;100.00;50545.75;5070054;28;20040;-72
2022/04/02 04:58:45;;;;;;;16.48;5.75;;;;;;;-149.78;100.00;50580.97;5074659;28;20043;-72
2022/04/02 05:01:12;;;;;;;15.43;5.90;;;;;;;-149.78;100.00;50549.69;5056815;28;20101;-72
2022/04/02 05:03:39;;;;;;;14.40;4.95;;;;;;;-149.78;100.00;50569.22;5073641;28;20036;-72
2022/04/02 05:06:09;;;;;;;12.38;5.57;;;;;;;-149.78;100.00;50600.53;5074655;28;20036;-72
2022/04/02 05:08:34;;;;;;;13.38;5.47;;;;;;;-149.78;100.00;50596.63;5073636;28;20033;-72
2022/04/02 05:11:01;;;;;;;16.42;5.85;;;;;;;-149.78;100.00;50561.41;5056908;28;20515;-72
2022/04/02 05:13:28;;;;;;;15.63;5.07;;;;;;;-149.78;100.00;50565.31;5074565;28;20036;-72
2022/04/02 05:15:54;;;;;;;13.65;5.15;;;;;;;-149.78;100.00;50557.50;5056776;28;20059;-71
2022/04/02 05:18:21;;;;;;;18.95;6.13;;;;;;;-149.78;100.00;50577.06;5074537;28;20102;-72
2022/04/02 05:20:47;;;;;;;14.45;5.55;;;;;;;-149.78;100.00;50594.66;5073244;28;20063;-72
2022/04/02 05:23:13;;;;;;;14.63;5.68;;;;;;;-149.78;100.00;50584.88;5074318;28;20064;-71
2022/04/02 05:25:40;;;;;;;16.00;6.18;;;;;;;-149.78;100.00;50580.97;5073102;28;20032;-71
2022/04/02 05:28:05;;;;;;;19.42;5.70;;;;;;;-149.78;100.00;50565.31;5056376;28;20032;-72
2022/04/02 05:30:33;;;;;;;16.38;5.30;;;;;;;-149.78;100.00;50565.31;5040022;28;20062;-72
2022/04/02 05:32:59;;;;;;;16.08;6.78;;;;;;;-149.78;100.00;50586.84;5074061;28;20569;-72
2022/04/02 05:35:25;;;;;;;19.25;6.95;;;;;;;-149.78;100.00;50565.31;5072756;28;20038;-72
2022/04/02 05:37:51;;;;;;;16.13;6.30;;;;;;;-149.78;100.00;50553.59;5072923;28;20032;-72
2022/04/02 05:40:16;;;;;;;17.20;6.25;;;;;;;-149.78;100.00;50596.63;5056121;28;20068;-71
2022/04/02 05:42:42;;;;;;;17.83;6.68;;;;;;;-149.78;100.00;50577.06;5073900;28;20043;-71
2022/04/02 05:45:09;;;;;;;19.25;6.93;;;;;;;-149.78;100.00;50541.84;5073978;28;20060;-72
2022/04/02 05:47:53;;;;;;;22.27;7.00;;;;;;;-149.78;100.00;50580.97;5072879;28;20032;-72
2022/04/02 05:50:21;;;;;;;17.83;7.63;;;;;;;-149.78;100.00;50580.97;5072578;28;20090;-72
2022/04/02 05:52:49;;;;;;;17.60;7.38;;;;;;;-149.78;100.00;50604.44;5073843;28;20498;-72
2022/04/02 05:55:15;;;;;;;17.33;7.00;;;;;;;-149.78;100.00;50588.78;5072179;28;20119;-72
2022/04/02 05:57:41;;;;;;;17.98;7.65;;;;;;;-149.78;100.00;50580.97;5072598;28;20115;-72
2022/04/02 06:00:10;;;;;;;20.17;7.68;;;;;;;-149.78;100.00;50579.00;5072214;28;20028;-72
2022/04/02 06:02:37;;;;;;;19.13;7.18;;;;;;;-149.78;100.00;50565.31;5075730;28;20036;-71
2022/04/02 06:05:09;;;;;;;22.02;7.78;;;;;;;-149.78;100.00;50565.31;5073601;28;20040;-71
2022/04/02 06:07:41;;;;;;;18.25;7.55;;;;;;;-149.78;100.00;50612.25;5082370;28;20101;-72
2022/04/02 06:10:14;;;;;;;21.58;7.28;;;;;;;-149.78;100.00;50545.75;5077817;28;20035;-72
2022/04/02 06:12:41;;;;;;;21.10;8.38;;;;;;;-149.78;100.00;50584.88;5039417;28;20040;-72
2022/04/02 06:15:12;;;;;;;20.55;6.97;;;;;;;-149.78;100.00;50561.41;5082824;28;20028;-71
2022/04/02 06:17:37;;;;;;;20.63;7.40;;;;;;;-149.78;100.00;50573.16;5086834;28;20105;-71
2022/04/02 06:20:05;;;;;;;19.00;7.72;;;;;;;-149.78;100.00;50563.38;5092267;28;20506;-71
2022/04/02 06:22:30;;;;;;;22.27;8.20;;;;;;;-149.78;100.00;50573.16;5086040;28;20080;-69
2022/04/02 06:24:56;;;;;;;20.35;7.35;;;;;;;-149.78;100.00;50551.63;5086289;28;20032;-69
2022/04/02 06:27:21;;;;;;;18.52;7.80;;;;;;;-149.78;100.00;50600.53;5087296;28;20054;-69
2022/04/02 06:29:48;;;;;;;16.38;6.35;;;;;;;-149.78;100.00;50596.63;5084069;28;20496;-69
2022/04/02 06:32:14;;;;;;;20.42;6.72;;;;;;;-149.78;100.00;50573.16;5087965;28;20055;-69
2022/04/02 06:34:39;;;;;;;20.33;8.15;;;;;;;-149.78;100.00;50565.31;5083790;28;20028;-70
2022/04/02 06:37:05;;;;;;;19.98;7.47;;;;;;;-149.78;100.00;50588.78;5067402;28;20039;-67
2022/04/02 06:39:31;;;;;;;22.23;7.75;;;;;;;-149.78;100.00;50549.69;5089339;28;20043;-68
2022/04/02 06:41:58;;;;;;;20.98;7.15;;;;;;;-149.78;100.00;50557.50;5085370;28;20036;-67
2022/04/02 06:44:24;;;;;;;18.35;7.68;;;;;;;-149.78;100.00;50573.16;5082433;28;20498;-68
2022/04/02 06:46:50;;;;;;;17.13;8.00;;;;;;;-149.78;100.00;50571.19;5083533;28;20033;-68
2022/04/02 06:49:15;;;;;;;21.42;7.72;;;;;;;-149.78;100.00;50557.50;5059897;28;20527;-68
2022/04/02 06:51:41;;;;;;;19.38;7.72;;;;;;;-149.78;100.00;50598.56;5082652;28;20040;-68
2022/04/02 06:54:07;;;;;;;20.58;7.75;;;;;;;-149.78;100.00;50596.63;5087672;28;20077;-68
2022/04/02 06:56:33;;;;;;;26.63;8.00;;;;;;;-149.78;100.00;50553.59;5080583;28;20043;-67
2022/04/02 06:59:05;;;;;;;19.48;7.25;;;;;;;-149.78;100.00;50541.84;5089699;28;20036;-67
2022/04/02 07:01:32;;;;;;;20.77;8.10;;;;;;;-149.78;100.00;50549.69;5084494;28;20036;-67
2022/04/02 07:03:59;;;;;;;18.42;7.90;;;;;;;-149.78;100.00;50561.41;5088854;28;20040;-67
2022/04/02 07:06:26;;;;;;;16.27;7.15;;;;;;;-149.78;100.00;50553.59;5087475;28;20150;-67
2022/04/02 07:08:52;;;;;;;19.48;8.05;;;;;;;-149.78;100.00;50557.50;5087887;28;20088;-67
2022/04/02 07:11:20;;;;;;;20.98;7.72;;;;;;;-149.78;100.00;50553.59;5087182;28;20051;-70
2022/04/02 07:13:45;;;;;;;19.25;7.57;;;;;;;-149.78;100.00;50569.22;5087784;28;20032;-70
2022/04/02 07:16:11;;;;;;;18.00;7.75;;;;;;;-149.78;100.00;50561.41;5087477;28;20403;-70
2022/04/02 07:18:43;;;;;;;19.60;7.88;;;;;;;-149.78;100.00;50584.88;5085733;28;20042;-70
2022/04/02 07:21:13;;;;;;;16.92;7.57;;;;;;;-149.78;100.00;50565.31;5069477;28;20059;-71
2022/04/02 07:23:42;;;;;;;15.95;7.53;;;;;;;-149.78;100.00;50539.91;5079070;28;20039;-71
2022/04/02 07:26:09;;;;;;;17.00;7.65;;;;;;;-149.78;100.00;50526.22;5071105;28;20039;-71
2022/04/02 07:28:37;;;;;;;18.88;7.78;;;;;;;-149.78;100.00;50510.56;5075415;28;20028;-71
2022/04/02 07:31:03;;;;;;;22.75;7.85;;;;;;;-149.78;100.00;50447.97;5077716;28;20063;-71
2022/04/02 07:33:28;;;;;;;20.85;8.45;;;;;;;-149.78;100.00;50483.19;5082390;28;20083;-71
2022/04/02 07:36:09;;;;;;;12.05;6.38;;;;;;;-149.78;100.00;50420.59;5079920;28;20036;-72
2022/04/02 07:38:35;;;;;;;11.70;5.55;;;;;;;-149.78;100.00;50420.59;5079659;28;20214;-71
2022/04/02 07:41:26;;;;;;;13.73;6.47;;;;;;;-149.78;100.00;50391.25;5082156;28;20127;-73
2022/04/02 07:43:58;;;;;;;15.82;6.00;;;;;;;-149.78;100.00;50373.66;5077992;28;20087;-70
2022/04/02 07:46:29;;;;;;;9.30;5.50;;;;;;;-149.78;100.00;50367.78;5083734;28;20026;-71
2022/04/02 07:48:57;;;;;;;9.30;5.13;;;;;;;-149.78;100.00;50342.38;5077195;28;20032;-73
2022/04/02 07:51:28;;;;;;;7.10;4.85;;;;;;;-149.78;100.00;50354.09;5079647;28;20024;-71
2022/04/02 07:53:59;;;;;;;8.25;5.07;;;;;;;-149.78;100.00;50295.44;5081094;28;20155;-71
2022/04/02 07:56:28;;;;;;;8.43;5.03;;;;;;;-149.78;100.00;50303.25;5074214;28;20052;-70
2022/04/02 07:59:00;;;;;;;10.50;5.25;;;;;;;-149.78;100.00;50334.53;5077934;28;20066;-69
2022/04/02 08:01:26;;;;;;;8.25;5.20;;;;;;;-149.78;100.00;50387.34;5076630;28;20078;-69
2022/04/02 08:03:52;;;;;;;8.45;5.32;;;;;;;-149.78;100.00;50401.03;5081282;28;20064;-67
2022/04/02 08:06:19;;;;;;;9.82;5.38;;;;;;;-149.78;100.00;50381.47;5076299;28;20028;-72
2022/04/02 08:08:46;;;;;;;11.07;5.60;;;;;;;-149.78;100.00;50397.13;5080088;28;20036;-71
2022/04/02 08:11:12;;;;;;;9.93;5.47;;;;;;;-149.78;100.00;50416.69;5080315;28;20622;-73
2022/04/02 08:13:43;;;;;;;13.05;6.07;;;;;;;-149.78;100.00;50389.31;5080991;28;20031;-73
2022/04/02 08:16:10;;;;;;;11.90;5.80;;;;;;;-149.78;100.00;50358.00;5075469;28;20059;-73
2022/04/02 08:18:39;;;;;;;11.43;5.78;;;;;;;-149.78;100.00;50354.09;5079637;28;20077;-72
2022/04/02 08:21:07;;;;;;;10.10;5.10;;;;;;;-149.78;100.00;50326.72;5082082;28;20479;-72
2022/04/02 08:23:33;;;;;;;10.35;5.25;;;;;;;-149.78;100.00;50350.19;5056594;28;20133;-73
2022/04/02 08:26:12;;;;;;;10.32;5.75;;;;;;;-149.78;94.41;50291.50;5078021;28;20029;-72
2022/04/02 08:28:52;;;;;;;7.20;4.10;;;;;;;-149.78;85.63;50287.59;5081774;28;20047;-70
2022/04/02 08:31:36;;;;;;;7.38;3.95;;;;;;;-149.78;88.35;50307.16;5081702;28;20490;-71
2022/04/02 08:34:32;;;;;;;8.70;4.03;;;;;;;-149.78;87.74;50334.53;5085438;28;20044;-72
2022/04/02 08:37:10;;;;;;;6.20;3.70;;;;;;;-149.78;92.61;50326.72;5082102;28;20468;-72
2022/04/02 08:39:49;;;;;;;5.93;3.75;;;;;;;-149.78;88.17;50346.28;5088569;28;20570;-72
2022/04/02 08:42:52;;;;;;;8.13;3.58;;;;;;;-149.78;81.56;50291.50;5081168;28;20138;-70
2022/04/02 08:45:28;;;;;;;4.68;3.17;;;;;;;-149.78;92.09;50307.16;5080407;28;20364;-72
2022/04/02 08:48:14;;;;;;;8.65;3.55;;;;;;;-149.78;85.32;50332.59;5089590;28;20028;-69
2022/04/02 08:50:49;;;;;;;10.23;3.75;;;;;;;-149.78;78.59;50299.34;5078413;28;20484;-69
2022/04/02 08:53:16;;;;;;;9.60;4.28;;;;;;;-149.78;75.21;50283.69;5088230;28;20090;-67
2022/04/02 08:55:46;;;;;;;8.93;3.72;;;;;;;-149.78;69.08;50279.78;5084610;28;20032;-67
2022/04/02 08:58:23;;;;;;;7.97;3.47;;;;;;;-149.78;63.93;50270.00;5081653;28;20024;-65
2022/04/02 09:01:08;;;;;;;5.53;4.03;;;;;;;-149.78;61.34;50291.50;5085413;28;20028;-65
2022/04/02 09:03:37;;;;;;;7.35;4.00;;;;;;;-149.78;56.04;50260.22;5079413;28;20436;-69
2022/04/02 09:06:25;;;;;;;7.55;3.28;;;;;;;-149.78;56.10;50248.50;5087378;28;20028;-70
2022/04/02 09:09:06;;;;;;;7.35;3.25;;;;;;;-149.78;52.44;50248.50;5082987;28;20035;-69
2022/04/02 09:12:00;;;;;;;3.80;1.98;;;;;;;-149.78;51.84;50275.88;5089310;28;20032;-68
2022/04/02 09:14:44;;;;;;;4.32;1.50;;;;;;;-149.78;50.21;50242.63;5081306;28;20079;-69
2022/04/02 09:17:22;;;;;;;2.75;1.75;;;;;;;-149.78;54.87;50271.97;5084758;28;20707;-68
2022/04/02 09:20:07;;;;;;;5.65;1.92;;;;;;;-149.78;49.84;50264.13;5081281;28;20496;-69
2022/04/02 09:22:49;;;;;;;5.78;2.08;;;;;;;-149.78;49.41;50281.75;5083061;28;20059;-68
2022/04/02 09:25:33;;;;;;;6.18;2.17;;;;;;;-149.78;50.40;50236.75;5079354;28;20031;-69
2022/04/02 09:28:28;;;;;;;2.88;1.20;;;;;;;-149.78;46.52;50270.00;5088359;28;20071;-69
2022/04/02 09:31:25;;;;;;;3.90;1.95;;;;;;;-149.78;55.36;50268.03;5075858;28;20162;-69
2022/04/02 09:34:41;;;;;;;4.70;2.15;;;;;;;-149.78;50.77;50299.34;5077495;28;20048;-69
2022/04/02 09:37:12;;;;;;;5.55;2.47;;;;;;;-149.78;55.28;50275.88;5069245;28;20053;-68
2022/04/02 09:40:00;;;;;;;5.25;2.30;;;;;;;-149.78;53.63;50287.59;5083033;28;20035;-67
2022/04/02 09:42:43;;;;;;;8.15;2.08;;;;;;;-149.78;55.25;50322.81;5077989;28;20036;-67
2022/04/02 09:45:12;;;;;;;;;;;;;;;-149.78;65.24;50383.44;5080914;28;20090;-66
2022/04/02 09:47:58;;;;;;;4.53;2.20;;;;;;;-149.78;61.12;50354.09;5083601;28;20002;-66
2022/04/02 09:50:26;;;;;;;5.45;1.92;;;;;;;-149.78;60.09;50332.59;5080333;28;20463;-69
2022/04/02 09:53:22;;;;;;;5.97;2.05;;;;;;;-149.78;64.28;50418.63;5080309;28;20036;-69
2022/04/02 09:56:03;;;;;;;6.22;1.80;;;;;;;-149.78;64.96;50397.13;5077898;28;20120;-69
2022/04/02 09:58:47;;;;;;;6.22;2.42;;;;;;;-149.78;68.31;50361.91;5077688;28;20035;-69
2022/04/02 10:01:23;;;;;;;5.20;2.60;;;;;;;-149.78;63.15;50334.53;5083465;28;20101;-69
2022/04/02 10:04:00;;;;;;;5.18;1.70;;;;;;;-149.78;54.26;50314.97;5066729;28;20035;-68
2022/04/02 10:06:38;;;;;;;3.83;1.70;;;;;;;-149.78;51.62;50318.91;5062090;28;20040;-69
2022/04/02 10:09:09;;;;;;;4.75;1.98;;;;;;;-149.78;55.34;50365.84;5088459;28;20035;-69
2022/04/02 10:11:47;;;;;;;7.72;2.75;;;;;;;-149.78;56.32;50379.53;5081599;28;20028;-69
2022/04/02 10:14:22;;;;;;;4.72;2.70;;;;;;;-149.78;57.17;50371.69;5071700;28;20110;-67
2022/04/02 10:16:55;;;;;;;5.88;2.80;;;;;;;-149.78;60.76;50377.56;5079623;28;20483;-66
2022/04/02 10:19:33;;;;;;;6.32;2.35;;;;;;;-149.78;56.03;50342.38;5074467;28;20038;-66
2022/04/02 10:22:10;;;;;;;7.18;2.80;;;;;;;-149.78;51.74;50313.03;5082759;28;20032;-67
2022/04/02 10:24:39;;;;;;;4.85;2.28;;;;;;;-149.78;51.38;50311.06;5077313;28;20040;-67
2022/04/02 10:27:10;;;;;;;2.95;1.98;;;;;;;-149.78;50.85;50314.97;5075455;28;20027;-66
2022/04/02 10:30:01;;;;;;;4.00;1.70;;;;;;;-149.78;46.27;50330.63;5075925;28;20063;-67
2022/04/02 10:32:54;;;;;;;5.15;2.03;;;;;;;-149.78;46.23;50320.84;5078120;28;20515;-67
2022/04/02 10:35:22;;;;;;;3.75;1.70;;;;;;;-149.78;48.80;50346.28;5083555;28;20436;-66
2022/04/02 10:38:15;;;;;;;7.18;2.03;;;;;;;-149.78;49.47;50354.09;5082102;28;20028;-66
2022/04/02 10:40:46;;;;;;;;;;;;;;;-149.78;51.70;50391.25;5081944;28;20039;-67
2022/04/02 10:43:26;;;;;;;5.20;1.60;;;;;;;-149.78;53.13;50365.84;5088903;28;19904;-67
2022/04/02 10:45:52;;;;;;;4.22;1.98;;;;;;;-149.78;56.25;50416.69;5071765;28;20066;-67
2022/04/02 10:48:27;;;;;;;5.70;2.38;;;;;;;-149.78;59.09;50404.94;5087174;28;20036;-67
2022/04/02 10:50:54;;;;;;;3.15;2.42;;;;;;;-149.78;61.88;50424.50;5078407;28;20066;-67
2022/04/02 10:53:22;;;;;;;3.08;2.30;;;;;;;-149.78;66.28;50432.31;5090709;28;20118;-67
2022/04/02 10:56:00;;;;;;;7.47;3.42;;;;;;;-149.78;64.95;50424.50;5076792;28;20032;-67
2022/04/02 10:58:35;;;;;;;9.55;3.60;;;;;;;-149.78;68.86;50428.41;5085901;28;20059;-67
2022/04/02 11:01:04;;;;;;;10.85;3.40;;;;;;;-149.78;68.88;50424.50;5084250;28;21474;-67
2022/04/02 11:03:40;;;;;;;5.43;2.90;;;;;;;-149.78;68.58;50389.31;5079564;28;20036;-67
2022/04/02 11:06:07;;;;;;;7.50;2.83;;;;;;;-149.78;64.55;50377.56;5078509;28;20120;-67
2022/04/02 11:08:33;;;;;;;4.50;2.55;;;;;;;-149.78;58.90;50397.13;5089810;28;20036;-67
2022/04/02 11:11:14;;;;;;;5.15;2.28;;;;;;;-149.78;60.88;50373.66;5086085;28;20123;-67
2022/04/02 11:13:43;;;;;;;5.15;2.30;;;;;;;-149.78;61.27;50354.09;5076623;28;20031;-67
2022/04/02 11:16:16;;;;;;;5.97;2.55;;;;;;;-149.78;58.80;50424.50;5088134;28;20024;-67
2022/04/02 11:19:53;;;;;;;4.78;1.95;;;;;;;-149.78;59.81;50416.69;5087911;28;20051;-67
2022/04/02 11:21:43;;;;;;;3.05;1.70;;;;;;;-149.78;63.46;50371.69;5088410;28;20024;-67